Fascination — C6FM9 — position and weather

sailwx.info

Track history (hours):
 
Tides and Currents Weather Stations Pressure Air Temp Water Temp Dewpoint Dewpoint Depression Visibility Wind Speed Wind Dir Waves Ship Positions

Fascination

Operator: Carnival Cruise Lines

Last reported at 2018-Aug-14 12:31 UTC. Time now 2018-Aug-14 13:47 UTC.
Position N 17°04' W 062°42'.

Type: Ship. MMSI: 309682000.

Date/timePositionNaut miles runAvg speedWind from/ knotsBaromVisibWave heightAir tempDewpointWater temp
2018-Aug-14 12:31N 17°04' W 062°42'13 5.3
2018-Aug-14 10:08N 17°17' W 062°43'1 8.7
2018-Aug-14 09:58N 17°16' W 062°44'914.9
2018-Aug-14 09:20N 17°11' W 062°52'3917.9
2018-Aug-14 07:08N 16°53' W 063°29'315.1
2018-Aug-14 06:57N 16°52' W 063°31'4611.7
2018-Aug-14 03:00N 17°30' W 064°00'5613.2 270 / 281024.310.8 27.024.123.0
2018-Aug-13 22:44N 18°08' W 064°43'312.5
2018-Aug-13 22:28N 18°10' W 064°47'612.6
2018-Aug-13 22:00N 18°12' W 064°52'71 3.7
2018-Aug-13 03:00N 18°42' W 066°00'69 3.0 180 / 241024.3 27.024.123.0
2018-Aug-12 04:03N 18°10' W 064°56'117.1
2018-Aug-12 04:00N 18°10' W 064°55'1313.0
2018-Aug-12 03:00N 18°06' W 064°42'6517.7 060 / 251024.310.8 27.024.123.0
2018-Aug-11 23:19N 18°02' W 063°34'516.3
2018-Aug-11 23:00N 18°02' W 063°28'1116.4
2018-Aug-11 22:20N 18°01' W 063°17'616.6
2018-Aug-11 21:59N 18°00' W 063°11'712.5
2018-Aug-11 21:24N 18°00' W 063°03'1 1.4
2018-Aug-11 20:59N 18°01' W 063°03'0 0.0
2018-Aug-11 20:26N 18°01' W 063°03'0 0.0
2018-Aug-11 19:50N 18°01' W 063°03'0 0.0
2018-Aug-11 19:16N 18°01' W 063°03'0 0.0
2018-Aug-11 18:56N 18°01' W 063°03'0 0.0
2018-Aug-11 18:28N 18°01' W 063°03'0 0.0
2018-Aug-11 17:52N 18°01' W 063°03'0 0.0
2018-Aug-11 17:19N 18°01' W 063°03'0 0.0
2018-Aug-11 17:00N 18°01' W 063°03'0 0.0
2018-Aug-11 15:54N 18°01' W 063°03'0 0.0
2018-Aug-11 14:48N 18°01' W 063°03'0 0.0
2018-Aug-11 14:30N 18°01' W 063°03'0 0.0
2018-Aug-11 13:56N 18°01' W 063°03'0 0.0
2018-Aug-11 13:26N 18°01' W 063°03'0 0.0
2018-Aug-11 12:50N 18°01' W 063°03'0 0.0
2018-Aug-11 12:17N 18°01' W 063°03'0 0.0
2018-Aug-11 11:58N 18°01' W 063°03'0 0.0
2018-Aug-11 11:25N 18°01' W 063°03'0 0.0
2018-Aug-11 10:52N 18°01' W 063°03'0 1.0
2018-Aug-11 10:27N 18°00' W 063°03'3 6.2
2018-Aug-11 09:58N 18°00' W 063°06'5 9.3
2018-Aug-11 09:27N 18°00' W 063°11'5 9.4
2018-Aug-11 08:55N 18°01' W 063°16'510.3
2018-Aug-11 08:28N 18°01' W 063°21'510.0
2018-Aug-11 07:57N 18°02' W 063°26'510.3
2018-Aug-11 07:30N 18°05' W 063°31'710.4
2018-Aug-11 06:50N 18°08' W 063°37'410.3
2018-Aug-11 06:27N 18°11' W 063°40'9 8.5
2018-Aug-11 05:22N 18°02' W 063°44'16 8.8
2018-Aug-11 03:34N 17°53' W 063°30'1 9.1
2018-Aug-11 03:30N 17°53' W 063°30'714.3
2018-Aug-11 03:00N 17°48' W 063°24'428.4 020 / 171024.310.8 27.024.123.0
2018-Aug-11 02:51N 17°52' W 063°23'410.5
2018-Aug-11 02:30N 17°50' W 063°19'710.6
2018-Aug-11 01:52N 17°47' W 063°13'410.4
2018-Aug-11 01:30N 17°45' W 063°10'510.1
2018-Aug-11 00:59N 17°40' W 063°07'510.7
2018-Aug-11 00:30N 17°35' W 063°07'510.0
2018-Aug-11 00:00N 17°30' W 063°08'7 9.6
2018-Aug-10 23:16N 17°24' W 063°03'610.8
2018-Aug-10 22:45N 17°21' W 062°59'311.2
2018-Aug-10 22:31N 17°19' W 062°57'15 1.3
2018-Aug-10 10:30N 17°10' W 062°43'17116.0
2018-Aug-09 23:50N 14°36' W 061°27'618.0
2018-Aug-09 23:30N 14°30' W 061°25'1118.0
2018-Aug-09 22:52N 14°20' W 061°19'617.2
2018-Aug-09 22:30N 14°15' W 061°15'816.7
2018-Aug-09 22:01N 14°10' W 061°09'1312.5
2018-Aug-09 21:00N 14°01' W 060°60'0 0.0
2018-Aug-09 16:57N 14°01' W 060°60'0 0.0
2018-Aug-09 15:51N 14°01' W 060°60'0 0.0
2018-Aug-09 13:05N 14°01' W 060°60'0 0.0
2018-Aug-09 11:46N 14°01' W 060°60'0 0.0
2018-Aug-09 11:29N 14°01' W 060°60'1 1.3
2018-Aug-09 10:58N 14°01' W 061°00'4 7.5
2018-Aug-09 10:30N 14°02' W 061°04'47 6.2
2018-Aug-09 03:00N 13°24' W 060°36'71 3.0 060 / 181024.3 27.024.123.0
2018-Aug-08 03:07N 14°34' W 060°27'516.3
2018-Aug-08 02:48N 14°39' W 060°30'2415.6
2018-Aug-08 01:16N 14°59' W 060°43'36 5.0
2018-Aug-07 18:00N 15°12' W 061°18'11910.3 250 / 21022.327.0 31.025.430.0
2018-Aug-07 06:28N 16°26' W 062°54'4318.5
2018-Aug-07 04:08N 16°55' W 063°28'1715.2
2018-Aug-07 03:00N 17°06' W 063°42'158 6.6 280 / 301024.3 5.4 27.024.123.0
2018-Aug-06 03:00N 18°42' W 065°54'60 2.6 240 / 161024.310.8 27.024.123.0
2018-Aug-05 03:58N 18°11' W 065°00'817.0
2018-Aug-05 03:30N 18°09' W 064°52'510.1
2018-Aug-05 03:00N 18°06' W 064°48'6817.5 040 / 221024.310.8 27.024.124.0
2018-Aug-04 23:05N 18°02' W 063°36'316.3
2018-Aug-04 22:53N 18°02' W 063°33'616.2
2018-Aug-04 22:30N 18°02' W 063°26'916.5
2018-Aug-04 21:58N 18°01' W 063°17'816.3
2018-Aug-04 21:28N 18°00' W 063°09'610.4
2018-Aug-04 20:56N 18°01' W 063°03'0 0.1
2018-Aug-04 20:27N 18°01' W 063°03'0 0.0
2018-Aug-04 18:17N 18°01' W 063°03'0 0.0
2018-Aug-04 17:47N 18°01' W 063°03'0 0.0
2018-Aug-04 17:14N 18°01' W 063°03'0 0.0
2018-Aug-04 16:56N 18°01' W 063°03'0 0.0
2018-Aug-04 15:50N 18°01' W 063°03'0 0.0
2018-Aug-04 14:40N 18°01' W 063°03'0 0.0
2018-Aug-04 14:24N 18°01' W 063°03'0 0.0
2018-Aug-04 13:51N 18°01' W 063°03'0 0.0
2018-Aug-04 13:18N 18°01' W 063°03'0 0.0
2018-Aug-04 12:57N 18°01' W 063°03'  
Track history (hours):
 
Tides and Currents Weather Stations Pressure Air Temp Water Temp Dewpoint Dewpoint Depression Visibility Wind Speed Wind Dir Waves Ship Positions

Fascination

Operator: Carnival Cruise Lines

Last reported at 2018-Aug-14 12:31 UTC. Time now 2018-Aug-14 13:47 UTC.
Position N 17°04' W 062°42'.

Type: Ship. MMSI: 309682000.

Date/timePositionNaut miles runAvg speedWind from/ knotsBaromVisibWave heightAir tempDewpointWater temp
2018-Aug-14 12:31N 17°04' W 062°42'13 5.3
2018-Aug-14 10:08N 17°17' W 062°43'1 8.7
2018-Aug-14 09:58N 17°16' W 062°44'914.9
2018-Aug-14 09:20N 17°11' W 062°52'3917.9
2018-Aug-14 07:08N 16°53' W 063°29'315.1
2018-Aug-14 06:57N 16°52' W 063°31'4611.7
2018-Aug-14 03:00N 17°30' W 064°00'5613.2 270 / 281024.310.8 27.024.123.0
2018-Aug-13 22:44N 18°08' W 064°43'312.5
2018-Aug-13 22:28N 18°10' W 064°47'612.6
2018-Aug-13 22:00N 18°12' W 064°52'71 3.7
2018-Aug-13 03:00N 18°42' W 066°00'69 3.0 180 / 241024.3 27.024.123.0
2018-Aug-12 04:03N 18°10' W 064°56'117.1
2018-Aug-12 04:00N 18°10' W 064°55'1313.0
2018-Aug-12 03:00N 18°06' W 064°42'6517.7 060 / 251024.310.8 27.024.123.0
2018-Aug-11 23:19N 18°02' W 063°34'516.3
2018-Aug-11 23:00N 18°02' W 063°28'1116.4
2018-Aug-11 22:20N 18°01' W 063°17'616.6
2018-Aug-11 21:59N 18°00' W 063°11'712.5
2018-Aug-11 21:24N 18°00' W 063°03'1 1.4
2018-Aug-11 20:59N 18°01' W 063°03'0 0.0
2018-Aug-11 20:26N 18°01' W 063°03'0 0.0
2018-Aug-11 19:50N 18°01' W 063°03'0 0.0
2018-Aug-11 19:16N 18°01' W 063°03'0 0.0
2018-Aug-11 18:56N 18°01' W 063°03'0 0.0
2018-Aug-11 18:28N 18°01' W 063°03'0 0.0
2018-Aug-11 17:52N 18°01' W 063°03'0 0.0
2018-Aug-11 17:19N 18°01' W 063°03'0 0.0
2018-Aug-11 17:00N 18°01' W 063°03'0 0.0
2018-Aug-11 15:54N 18°01' W 063°03'0 0.0
2018-Aug-11 14:48N 18°01' W 063°03'0 0.0
2018-Aug-11 14:30N 18°01' W 063°03'0 0.0
2018-Aug-11 13:56N 18°01' W 063°03'0 0.0
2018-Aug-11 13:26N 18°01' W 063°03'0 0.0
2018-Aug-11 12:50N 18°01' W 063°03'0 0.0
2018-Aug-11 12:17N 18°01' W 063°03'0 0.0
2018-Aug-11 11:58N 18°01' W 063°03'0 0.0
2018-Aug-11 11:25N 18°01' W 063°03'0 0.0
2018-Aug-11 10:52N 18°01' W 063°03'0 1.0
2018-Aug-11 10:27N 18°00' W 063°03'3 6.2
2018-Aug-11 09:58N 18°00' W 063°06'5 9.3
2018-Aug-11 09:27N 18°00' W 063°11'5 9.4
2018-Aug-11 08:55N 18°01' W 063°16'510.3
2018-Aug-11 08:28N 18°01' W 063°21'510.0
2018-Aug-11 07:57N 18°02' W 063°26'510.3
2018-Aug-11 07:30N 18°05' W 063°31'710.4
2018-Aug-11 06:50N 18°08' W 063°37'410.3
2018-Aug-11 06:27N 18°11' W 063°40'9 8.5
2018-Aug-11 05:22N 18°02' W 063°44'16 8.8
2018-Aug-11 03:34N 17°53' W 063°30'1 9.1
2018-Aug-11 03:30N 17°53' W 063°30'714.3
2018-Aug-11 03:00N 17°48' W 063°24'428.4 020 / 171024.310.8 27.024.123.0
2018-Aug-11 02:51N 17°52' W 063°23'410.5
2018-Aug-11 02:30N 17°50' W 063°19'710.6
2018-Aug-11 01:52N 17°47' W 063°13'410.4
2018-Aug-11 01:30N 17°45' W 063°10'510.1
2018-Aug-11 00:59N 17°40' W 063°07'510.7
2018-Aug-11 00:30N 17°35' W 063°07'510.0
2018-Aug-11 00:00N 17°30' W 063°08'7 9.6
2018-Aug-10 23:16N 17°24' W 063°03'610.8
2018-Aug-10 22:45N 17°21' W 062°59'311.2
2018-Aug-10 22:31N 17°19' W 062°57'15 1.3
2018-Aug-10 10:30N 17°10' W 062°43'17116.0
2018-Aug-09 23:50N 14°36' W 061°27'618.0
2018-Aug-09 23:30N 14°30' W 061°25'1118.0
2018-Aug-09 22:52N 14°20' W 061°19'617.2
2018-Aug-09 22:30N 14°15' W 061°15'816.7
2018-Aug-09 22:01N 14°10' W 061°09'1312.5
2018-Aug-09 21:00N 14°01' W 060°60'0 0.0
2018-Aug-09 16:57N 14°01' W 060°60'0 0.0
2018-Aug-09 15:51N 14°01' W 060°60'0 0.0
2018-Aug-09 13:05N 14°01' W 060°60'0 0.0
2018-Aug-09 11:46N 14°01' W 060°60'0 0.0
2018-Aug-09 11:29N 14°01' W 060°60'1 1.3
2018-Aug-09 10:58N 14°01' W 061°00'4 7.5
2018-Aug-09 10:30N 14°02' W 061°04'47 6.2
2018-Aug-09 03:00N 13°24' W 060°36'71 3.0 060 / 181024.3 27.024.123.0
2018-Aug-08 03:07N 14°34' W 060°27'516.3
2018-Aug-08 02:48N 14°39' W 060°30'2415.6
2018-Aug-08 01:16N 14°59' W 060°43'36 5.0
2018-Aug-07 18:00N 15°12' W 061°18'11910.3 250 / 21022.327.0 31.025.430.0
2018-Aug-07 06:28N 16°26' W 062°54'4318.5
2018-Aug-07 04:08N 16°55' W 063°28'1715.2
2018-Aug-07 03:00N 17°06' W 063°42'158 6.6 280 / 301024.3 5.4 27.024.123.0
2018-Aug-06 03:00N 18°42' W 065°54'60 2.6 240 / 161024.310.8 27.024.123.0
2018-Aug-05 03:58N 18°11' W 065°00'817.0
2018-Aug-05 03:30N 18°09' W 064°52'510.1
2018-Aug-05 03:00N 18°06' W 064°48'6817.5 040 / 221024.310.8 27.024.124.0
2018-Aug-04 23:05N 18°02' W 063°36'316.3
2018-Aug-04 22:53N 18°02' W 063°33'616.2
2018-Aug-04 22:30N 18°02' W 063°26'916.5
2018-Aug-04 21:58N 18°01' W 063°17'816.3
2018-Aug-04 21:28N 18°00' W 063°09'610.4
2018-Aug-04 20:56N 18°01' W 063°03'0 0.1
2018-Aug-04 20:27N 18°01' W 063°03'0 0.0
2018-Aug-04 18:17N 18°01' W 063°03'0 0.0
2018-Aug-04 17:47N 18°01' W 063°03'0 0.0
2018-Aug-04 17:14N 18°01' W 063°03'0 0.0
2018-Aug-04 16:56N 18°01' W 063°03'0 0.0
2018-Aug-04 15:50N 18°01' W 063°03'0 0.0
2018-Aug-04 14:40N 18°01' W 063°03'0 0.0
2018-Aug-04 14:24N 18°01' W 063°03'0 0.0
2018-Aug-04 13:51N 18°01' W 063°03'0 0.0
2018-Aug-04 13:18N 18°01' W 063°03'0 0.0
2018-Aug-04 12:57N 18°01' W 063°03'  

Dump ship's entire track history